Huvudsida
METAR-TAF:

METAR-TAF

Flygplatser :

Såtenäs, Sverige

Skaraborgs flygflottilj

latitud: 58-26N, longitud: 012-42E, höjd: 54 m

Aktuellt väderrapport

Denna rapport gjordes för 15 minuter sedan, klockan 03:20 UTC
Vind 1 kt från syd/sydväst
Temperatur -2°C
Fuktighet 100%
Tryck 998 hPa
Sikt: 0800 m
fuktdis

METAR: ESIB 190320Z AUTO 21001KT 0800 0300// R01/P2000N R19/0550V1300U BR FEW011/// BKN013/// OVC056/// M02/M02 Q0998

Tid: 04:35 (03:35 UTC)

Väderprognos

Denna rapport gjordes för 10 timmar och 5 minuter sedan, klockan 17:30 UTC
Prognos gäller från 18 kl. 18 UTC till 18 kl. 21 UTC
Vind 3 kt från ost
Sikt 10 km eller mer
Brutna moln på en höjd av 3000 ft
Temporärt
från 18 kl. 18 UTC till 18 kl. 21 UTC
Sikt: 1900 m
Brutna moln på en höjd av 400 ft, Cumulonimbus.
tunga snöbyar

TAF: ESIB 181730Z 1818/1821 08003KT 9999 BKN030 TEMPO 1818/1821 1900 +SHSN BKN004CB RMK MIL

Aktuella väderrapporter och prognoser från 4000 flygplatser (METAR- och TAF-rapporter).

De tillgängliga stationerna syns som gula och röda prickar på kartan.

För musen över prickarna för att se namnen på stationerna.

Klicka sedan för att få väderrapporter och prognoser.

För att ändra kartan: Klicka på de gröna knapparna med ett svart kors på för att zooma in; den gröna knappen med ett streck på för att zooma ut; eller på de gröna pilarna för angränsande kartor.


METAR-TAF: